Map

Track Data

SID SEASON NUMBER BASIN SUBBASIN NAME ISO_TIME NATURE LAT LON WMO_WIND WMO_PRES WMO_AGENCY TRACK_TYPE DIST2LAND LANDFALL IFLAG USA_AGENCY USA_ATCF_ID USA_LAT USA_LON USA_RECORD USA_STATUS USA_WIND USA_PRES USA_SSHS USA_R34_NE USA_R34_SE USA_R34_SW USA_R34_NW USA_R50_NE USA_R50_SE USA_R50_SW USA_R50_NW USA_R64_NE USA_R64_SE USA_R64_SW USA_R64_NW USA_POCI USA_ROCI USA_RMW USA_EYE TOKYO_LAT TOKYO_LON TOKYO_GRADE TOKYO_WIND TOKYO_PRES TOKYO_R50_DIR TOKYO_R50_LONG TOKYO_R50_SHORT TOKYO_R30_DIR TOKYO_R30_LONG TOKYO_R30_SHORT TOKYO_LAND CMA_LAT CMA_LON CMA_CAT CMA_WIND CMA_PRES HKO_LAT HKO_LON HKO_CAT HKO_WIND HKO_PRES NEWDELHI_LAT NEWDELHI_LON NEWDELHI_GRADE NEWDELHI_WIND NEWDELHI_PRES NEWDELHI_CI NEWDELHI_DP NEWDELHI_POCI REUNION_LAT REUNION_LON REUNION_TYPE REUNION_WIND REUNION_PRES REUNION_TNUM REUNION_CI REUNION_RMW REUNION_R34_NE REUNION_R34_SE REUNION_R34_SW REUNION_R34_NW REUNION_R50_NE REUNION_R50_SE REUNION_R50_SW REUNION_R50_NW REUNION_R64_NE REUNION_R64_SE REUNION_R64_SW REUNION_R64_NW BOM_LAT BOM_LON BOM_TYPE BOM_WIND BOM_PRES BOM_TNUM BOM_CI BOM_RMW BOM_R34_NE BOM_R34_SE BOM_R34_SW BOM_R34_NW BOM_R50_NE BOM_R50_SE BOM_R50_SW BOM_R50_NW BOM_R64_NE BOM_R64_SE BOM_R64_SW BOM_R64_NW BOM_ROCI BOM_POCI BOM_EYE BOM_POS_METHOD BOM_PRES_METHOD NADI_LAT NADI_LON NADI_CAT NADI_WIND NADI_PRES WELLINGTON_LAT WELLINGTON_LON WELLINGTON_WIND WELLINGTON_PRES DS824_LAT DS824_LON DS824_STAGE DS824_WIND DS824_PRES TD9636_LAT TD9636_LON TD9636_STAGE TD9636_WIND TD9636_PRES TD9635_LAT TD9635_LON TD9635_WIND TD9635_PRES TD9635_ROCI NEUMANN_LAT NEUMANN_LON NEUMANN_CLASS NEUMANN_WIND NEUMANN_PRES MLC_LAT MLC_LON MLC_CLASS MLC_WIND MLC_PRES USA_GUST BOM_GUST BOM_GUST_PER REUNION_GUST REUNION_GUST_PER USA_SEAHGT USA_SEARAD_NE USA_SEARAD_SE USA_SEARAD_SW USA_SEARAD_NW STORM_SPEED STORM_DIR
1905250N19087 1905 37 NI BB NOT_NAMED 1905-09-07 00:00:00 TS 19.1000 86.5000 main 98 88 _________O____ -1 19.1000 86.5000 TC 30 2 19
1905250N19087 1905 37 NI BB NOT_NAMED 1905-09-07 03:00:00 TS 19.1917 86.5300 main 88 78 _________PO___ -1 19.2375 86.5450 TC 30 19.1000 86.5000 1 3 15
1905250N19087 1905 37 NI BB NOT_NAMED 1905-09-07 06:00:00 TS 19.3533 86.5770 main 70 59 _________OP___ -1 19.4000 86.6000 TC 30 19.2832 86.5424 1 4 15
1905250N19087 1905 37 NI BB NOT_NAMED 1905-09-07 09:00:00 TS 19.5413 86.6319 main 59 45 _________PP___ -1 19.6000 86.6649 TC 30 19.4631 86.5879 1 4 14
1905250N19087 1905 37 NI BB NOT_NAMED 1905-09-07 12:00:00 TS 19.7182 86.6697 main 45 33 _________OP___ -1 19.8000 86.7000 TC 30 19.6365 86.6394 1 3 10
1905250N19087 1905 37 NI BB NOT_NAMED 1905-09-07 15:00:00 TS 19.8787 86.6862 main 33 30 _________PO___ -1 19.9575 86.6725 TC 30 19.8000 86.7000 1 3 5
1905250N19087 1905 37 NI BB NOT_NAMED 1905-09-07 18:00:00 TS 20.0260 86.6809 main 30 11 _________OP___ -1 20.1000 86.6000 TC 30 19.9521 86.7618 1 3 0
1905250N19087 1905 37 NI BB NOT_NAMED 1905-09-07 21:00:00 TS 20.1701 86.6855 main 11 0 _________PP___ -1 20.2420 86.5971 TC 30 20.0981 86.7738 1 3 335
1905250N19087 1905 37 NI BB NOT_NAMED 1905-09-08 00:00:00 TS 20.3226 86.5370 main 0 0 _________OP___ -1 20.4000 86.4000 TC 30 20.2451 86.6740 1 6 301
1905250N19087 1905 37 NI BB NOT_NAMED 1905-09-08 03:00:00 TS 20.5002 86.0951 main 0 0 _________PO___ -1 20.6005 85.7903 TC 30 20.4000 86.4000 1 11 290
1905250N19087 1905 37 NI BB NOT_NAMED 1905-09-08 06:00:00 TS 20.6886 85.4422 main 0 0 _________OP___ -1 20.8000 85.0000 TC 30 20.5772 85.8844 1 13 286
1905250N19087 1905 37 NI BB NOT_NAMED 1905-09-08 09:00:00 TS 20.8620 84.7516 main 0 0 _________PP___ -1 20.9646 84.3073 TC 30 20.7593 85.1958 1 14 284
1905250N19087 1905 37 NI BB NOT_NAMED 1905-09-08 12:00:00 TS 21.0182 84.0046 main 0 0 _________OP___ -1 21.1000 83.6000 TC 30 20.9364 84.4092 1 15 281
1905250N19087 1905 37 NI BB NOT_NAMED 1905-09-08 15:00:00 TS 21.1499 83.2249 main 0 0 _________PO___ -1 21.1999 82.8497 TC 30 21.1000 83.6000 1 14 280
1905250N19087 1905 37 NI BB NOT_NAMED 1905-09-08 18:00:00 TS 21.2592 82.4884 main 0 0 _________OP___ -1 21.3000 82.1000 TC 30 21.2184 82.8768 1 14 280
1905250N19087 1905 37 NI BB NOT_NAMED 1905-09-08 21:00:00 TS 21.3806 81.7702 main 0 0 _________PP___ -1 21.4346 81.3923 TC 30 21.3267 82.1480 1 14 281
1905250N19087 1905 37 NI BB NOT_NAMED 1905-09-09 00:00:00 TS 21.5233 81.0602 main 0 0 _________OP___ -1 21.6000 80.7000 TC 30 21.4465 81.4204 1 14 283
1905250N19087 1905 37 NI BB NOT_NAMED 1905-09-09 03:00:00 TS 21.6886 80.3498 main 0 0 _________PO___ -1 21.7772 79.9997 TC 30 21.6000 80.7000 1 14 286
1905250N19087 1905 37 NI BB NOT_NAMED 1905-09-09 06:00:00 TS 21.9004 79.6462 main 0 0 _________OP___ -1 22.0000 79.3000 TC 30 21.8009 79.9925 1 14 290
1905250N19087 1905 37 NI BB NOT_NAMED 1905-09-09 09:00:00 TS 22.1617 78.9459 main 0 0 _________PP___ -1 22.2847 78.5999 TC 30 22.0387 79.2918 1 14 293
1905250N19087 1905 37 NI BB NOT_NAMED 1905-09-09 12:00:00 TS 22.4536 78.2476 main 0 0 _________OP___ -1 22.6000 77.9000 TC 30 22.3071 78.5952 1 14 294
1905250N19087 1905 37 NI AS NOT_NAMED 1905-09-09 15:00:00 TS 22.7461 77.5498 main 0 0 _________PO___ -1 22.8922 77.1996 TC 30 22.6000 77.9000 1 14 295
1905250N19087 1905 37 NI AS NOT_NAMED 1905-09-09 18:00:00 TS 23.0540 76.8220 main 0 0 _________OP___ -1 23.2000 76.5000 TC 30 22.9080 77.1440 1 15 295
1905250N19087 1905 37 NI AS NOT_NAMED 1905-09-09 21:00:00 TS 23.3931 76.0720 main 0 0 _________PP___ -1 23.5503 75.7478 TC 30 23.2360 76.3963 1 15 298
1905250N19087 1905 37 NI AS NOT_NAMED 1905-09-10 00:00:00 TS 23.7354 75.4001 main 0 0 _________OP___ -1 23.9000 75.1000 TC 30 23.5708 75.7002 1 13 302
1905250N19087 1905 37 NI AS NOT_NAMED 1905-09-10 03:00:00 TS 24.0535 74.8984 main 0 0 _________PO___ -1 24.2069 74.6969 TC 30 23.9000 75.1000 1 10 307
1905250N19087 1905 37 NI AS NOT_NAMED 1905-09-10 06:00:00 TS 24.3466 74.5217 main 0 0 _________OP___ -1 24.5000 74.4000 TC 30 24.1932 74.6435 1 9 311
1905250N19087 1905 37 NI AS NOT_NAMED 1905-09-10 09:00:00 TS 24.6376 74.1674 main 0 0 _________PP___ -1 24.7924 74.0498 TC 30 24.4828 74.2851 1 9 314
1905250N19087 1905 37 NI AS NOT_NAMED 1905-09-10 12:00:00 TS 24.9406 73.8421 main 0 0 _________OP___ -1 25.1000 73.7000 TC 30 24.7811 73.9843 1 9 317
1905250N19087 1905 37 NI AS NOT_NAMED 1905-09-10 15:00:00 TS 25.2675 73.5212 main 0 0 _________PO___ -1 25.4350 73.3424 TC 30 25.1000 73.7000 1 9 317
1905250N19087 1905 37 NI AS NOT_NAMED 1905-09-10 18:00:00 TS 25.5964 73.1655 main 0 0 _________OP___ -1 25.8000 73.0000 TC 30 25.3927 73.3309 1 9 317
1905250N19087 1905 37 NI AS NOT_NAMED 1905-09-10 21:00:00 TS 25.9314 72.8297 main 0 0 _________PP___ -1 26.1474 72.6845 TC 30 25.7154 72.9748 1 10 323
1905250N19087 1905 37 NI AS NOT_NAMED 1905-09-11 00:00:00 TS 26.3527 72.5281 main 0 0 _________OP___ -1 26.6000 72.4000 TC 30 26.1053 72.6562 1 11 332
1905250N19087 1905 37 NI AS NOT_NAMED 1905-09-11 03:00:00 TS 26.9200 72.2491 main 0 0 _________PO___ -1 27.2401 72.0983 TC 30 26.6000 72.4000 1 14 341
1905250N19087 1905 37 NI AS NOT_NAMED 1905-09-11 06:00:00 TS 27.6329 72.0206 main 0 0 _________OP___ -1 28.0000 71.9000 TC 30 27.2657 72.1413 1 15 349
1905250N19087 1905 37 NI AS NOT_NAMED 1905-09-11 09:00:00 TS 28.4155 71.9091 main 0 0 _________PP___ -1 28.7998 71.8601 TC 30 28.0311 71.9581 1 16 358
1905250N19087 1905 37 NI AS NOT_NAMED 1905-09-11 12:00:00 TS 29.2155 71.9477 main 0 0 _________OP___ -1 29.6000 72.0000 TC 30 28.8310 71.8954 1 16 7
1905250N19087 1905 37 NI AS NOT_NAMED 1905-09-11 15:00:00 TS 29.9723 72.1300 main 0 0 _________PO___ -1 30.3447 72.2601 TC 30 29.6000 72.0000 1 15 18
1905250N19087 1905 37 NI AS NOT_NAMED 1905-09-11 18:00:00 TS 30.5928 72.4736 main 0 0 _________OP___ -1 31.0000 72.7000 TC 30 30.2873 72.3038 1 14 32
1905250N19087 1905 37 NI AS NOT_NAMED 1905-09-11 21:00:00 TS 31.1551 72.9853 main 0 0 _________PP___ -1 31.5360 73.3038 TC 30 30.9012 72.7730 1 14 42
1905250N19087 1905 37 NI AS NOT_NAMED 1905-09-12 00:00:00 TS 31.6429 73.5707 main 0 0 _________OP___ -1 32.0000 74.0000 TC 30 31.4643 73.3560 1 12 46
1905250N19087 1905 37 NI AS NOT_NAMED 1905-09-12 03:00:00 NR 32.0000 74.0000 main 0 __________O___ -1 TC 32.0000 74.0000 1 10 46

About IBTrACS Database

This database is a web-friendly format of International Best Track Archive for Climate Stewardship (IBTrACS), a global best track data archive curated by NOAA dating back to 1842.

Updated: 2021-10-21